Time;durP1;ratioP1;P1;durP2;ratioP2;P2;SDS_P1;SDS_P2;PMS_P1;PMS_P2;Temp;Humidity;BMP_temperature;BMP_pressure;BME280_temperature;BME280_humidity;BME280_pressure;Samples;Min_cycle;Max_cycle;Signal;HPM_P1;HPM_P2
2022/08/05 00:01:16;;;;;;;3.30;1.90;;;25.30;83.30;;;;;;5094433;28;20484;-90
2022/08/05 00:03:41;;;;;;;2.73;2.33;;;25.30;83.50;;;;;;5098250;28;20452;-89
2022/08/05 00:06:08;;;;;;;2.20;2.00;;;25.20;83.50;;;;;;5117359;28;20436;-89
2022/08/05 00:08:34;;;;;;;2.67;1.80;;;25.20;83.50;;;;;;5117425;28;20222;-89
2022/08/05 00:11:01;;;;;;;3.30;2.70;;;25.20;83.80;;;;;;5106251;28;20436;-89
2022/08/05 00:13:29;;;;;;;1.90;1.90;;;25.20;83.60;;;;;;5095884;28;20515;-90
2022/08/05 00:15:55;;;;;;;2.40;2.20;;;25.10;83.30;;;;;;5093010;28;20464;-90
2022/08/05 00:18:20;;;;;;;3.17;2.30;;;25.10;83.20;;;;;;5089021;28;20467;-90
2022/08/05 00:20:46;;;;;;;4.07;2.37;;;25.10;83.30;;;;;;5095159;28;20216;-89
2022/08/05 00:23:11;;;;;;;2.00;1.90;;;25.10;83.50;;;;;;5096977;28;20577;-90
2022/08/05 00:25:37;;;;;;;1.67;1.60;;;25.10;83.50;;;;;;5095387;28;20185;-89
2022/08/05 00:28:02;;;;;;;1.50;1.33;;;25.10;83.90;;;;;;5098272;28;20284;-90
2022/08/05 00:30:28;;;;;;;1.57;1.50;;;25.10;84.10;;;;;;5094931;28;20186;-90
2022/08/05 00:32:53;;;;;;;1.43;1.30;;;25.00;84.30;;;;;;5084388;28;20190;-90
2022/08/05 00:35:19;;;;;;;1.90;1.80;;;25.00;84.40;;;;;;5098630;28;20197;-90
2022/08/05 00:37:44;;;;;;;3.43;2.20;;;25.00;84.90;;;;;;5097898;28;20182;-90
2022/08/05 00:40:10;;;;;;;2.20;1.90;;;24.90;85.10;;;;;;5097711;28;20277;-90
2022/08/05 00:42:38;;;;;;;3.60;1.40;;;24.90;85.30;;;;;;5096078;28;20181;-89
2022/08/05 00:45:06;;;;;;;4.67;2.13;;;24.90;85.40;;;;;;5094534;28;20428;-90
2022/08/05 00:47:32;;;;;;;2.30;2.10;;;24.80;85.70;;;;;;5080637;28;20413;-90
2022/08/05 00:49:58;;;;;;;4.07;2.57;;;24.80;86.00;;;;;;5096044;28;20508;-90
2022/08/05 00:52:24;;;;;;;1.43;1.33;;;24.70;86.20;;;;;;5094719;28;20206;-90
2022/08/05 00:54:49;;;;;;;2.07;1.93;;;24.70;86.40;;;;;;5098016;28;20170;-91
2022/08/05 00:57:15;;;;;;;2.60;2.10;;;24.70;86.70;;;;;;5098044;28;20194;-89
2022/08/05 00:59:40;;;;;;;7.83;1.90;;;24.70;86.70;;;;;;5097755;28;20456;-90
2022/08/05 01:02:06;;;;;;;2.00;1.37;;;24.60;87.00;;;;;;5094064;28;20176;-90
2022/08/05 01:04:31;;;;;;;1.60;1.50;;;24.60;87.40;;;;;;5096022;28;20175;-90
2022/08/05 01:06:57;;;;;;;2.40;2.10;;;24.60;87.40;;;;;;5094546;28;20553;-90
2022/08/05 01:09:23;;;;;;;2.50;2.30;;;24.50;87.60;;;;;;5097521;28;20201;-90
2022/08/05 01:11:52;;;;;;;3.90;2.33;;;24.50;88.00;;;;;;5097559;28;20192;-90
2022/08/05 01:14:32;;;;;;;4.80;2.00;;;24.50;88.20;;;;;;5079961;28;20178;-90
2022/08/05 01:17:05;;;;;;;2.40;1.77;;;24.40;88.30;;;;;;5093957;28;20435;-90
2022/08/05 01:19:53;;;;;;;1.53;1.43;;;24.40;88.50;;;;;;5097188;28;20463;-89
2022/08/05 01:22:48;;;;;;;3.07;2.60;;;24.40;88.90;;;;;;5096232;28;20963;-90
2022/08/05 01:25:45;;;;;;;2.27;2.07;;;24.30;89.10;;;;;;5093850;28;20428;-90
2022/08/05 01:28:30;;;;;;;2.90;2.17;;;24.30;89.20;;;;;;5083524;28;20460;-90
2022/08/05 01:31:14;;;;;;;2.77;2.20;;;24.20;89.50;;;;;;5096956;28;20793;-90
2022/08/05 01:34:10;;;;;;;2.33;2.13;;;24.20;89.50;;;;;;5095617;28;20431;-90
2022/08/05 01:36:42;;;;;;;5.37;1.90;;;24.20;89.70;;;;;;5089210;28;20455;-90
2022/08/05 01:39:13;;;;;;;2.53;2.10;;;24.10;89.90;;;;;;5097093;28;20451;-90
2022/08/05 01:41:43;;;;;;;2.70;2.50;;;24.10;90.20;;;;;;5096890;28;20506;-89
2022/08/05 01:44:11;;;;;;;3.77;2.00;;;24.00;90.30;;;;;;5097675;28;20465;-90
2022/08/05 01:46:40;;;;;;;2.57;2.37;;;24.00;90.60;;;;;;5096144;28;20824;-90
2022/08/05 01:49:15;;;;;;;2.07;1.97;;;23.90;90.70;;;;;;5097847;28;20447;-90
2022/08/05 01:51:42;;;;;;;1.67;1.63;;;23.90;91.00;;;;;;5097148;28;20468;-90
2022/08/05 01:54:12;;;;;;;2.20;2.00;;;23.90;91.00;;;;;;5106067;28;20470;-90
2022/08/05 01:56:40;;;;;;;1.97;1.87;;;23.80;91.40;;;;;;5081418;28;20452;-90
2022/08/05 01:59:10;;;;;;;1.60;1.50;;;23.80;91.60;;;;;;5096881;28;20443;-90
2022/08/05 02:01:37;;;;;;;1.60;1.50;;;23.80;91.60;;;;;;5092751;28;20401;-91
2022/08/05 02:04:04;;;;;;;1.70;1.63;;;23.70;91.70;;;;;;5096802;28;20892;-90
2022/08/05 02:06:30;;;;;;;1.67;1.60;;;23.70;91.80;;;;;;5092287;28;20427;-90
2022/08/05 02:08:56;;;;;;;2.50;1.97;;;23.70;92.20;;;;;;5096579;28;20443;-90
2022/08/05 02:11:22;;;;;;;5.50;3.00;;;23.60;92.30;;;;;;5113975;28;20416;-90
2022/08/05 02:14:04;;;;;;;5.50;3.13;;;23.60;92.30;;;;;;5096682;28;20806;-90
2022/08/05 02:16:35;;;;;;;5.20;3.57;;;23.60;92.50;;;;;;5096241;28;20451;-90
2022/08/05 02:19:10;;;;;;;7.23;2.77;;;23.50;92.60;;;;;;5078488;28;20461;-89
2022/08/05 02:21:39;;;;;;;2.23;2.03;;;23.50;93.00;;;;;;5072794;28;20519;-90
2022/08/05 02:24:09;;;;;;;9.90;2.97;;;23.50;92.90;;;;;;5072422;28;20788;-90
2022/08/05 02:26:43;;;;;;;3.57;2.47;;;23.40;93.20;;;;;;5072767;28;20824;-90
2022/08/05 02:29:11;;;;;;;1.67;1.57;;;23.40;93.20;;;;;;5072538;28;20429;-90
2022/08/05 02:31:39;;;;;;;1.40;1.23;;;23.40;93.40;;;;;;5072799;28;20413;-90
2022/08/05 02:34:07;;;;;;;2.60;1.97;;;23.30;93.60;;;;;;5071864;28;20421;-90
2022/08/05 02:36:35;;;;;;;3.20;2.13;;;23.30;93.70;;;;;;5073105;28;20516;-89
2022/08/05 02:39:04;;;;;;;4.83;2.30;;;23.20;93.90;;;;;;5072733;28;20440;-88
2022/08/05 02:41:32;;;;;;;4.30;2.33;;;23.10;94.00;;;;;;5072483;28;20803;-89
2022/08/05 02:44:00;;;;;;;3.77;3.43;;;23.10;94.30;;;;;;5072748;28;20479;-90
2022/08/05 02:46:28;;;;;;;2.93;2.73;;;23.10;94.30;;;;;;5073098;28;20975;-90
2022/08/05 02:48:55;;;;;;;1.80;1.80;;;23.10;94.40;;;;;;5072089;28;20528;-89
2022/08/05 02:51:21;;;;;;;2.90;2.17;;;23.00;94.60;;;;;;5072626;28;20482;-90
2022/08/05 02:53:48;;;;;;;3.20;3.00;;;23.00;94.80;;;;;;5071894;28;20428;-90
2022/08/05 02:56:15;;;;;;;2.27;2.07;;;23.00;95.00;;;;;;5069577;28;20453;-90
2022/08/05 02:58:42;;;;;;;3.83;2.67;;;22.90;95.00;;;;;;5072131;28;20437;-90
2022/08/05 03:01:28;;;;;;;2.03;1.90;;;22.90;95.10;;;;;;5072828;28;20546;-90
2022/08/05 03:04:01;;;;;;;2.20;2.00;;;22.90;95.30;;;;;;5072208;28;20421;-90
2022/08/05 03:06:30;;;;;;;3.80;2.17;;;22.80;95.50;;;;;;5072612;28;20432;-90
2022/08/05 03:12:41;;;;;;;3.27;2.87;;;22.80;95.50;;;;;;5057973;28;20410;-90
2022/08/05 03:15:09;;;;;;;4.60;2.77;;;22.70;95.50;;;;;;5075298;28;20454;-90
2022/08/05 03:17:38;;;;;;;3.00;1.90;;;22.70;95.80;;;;;;5068633;28;20479;-90
2022/08/05 03:20:05;;;;;;;5.73;2.73;;;22.70;95.80;;;;;;5090189;28;20465;-90
2022/08/05 03:22:30;;;;;;;3.60;2.23;;;22.60;96.00;;;;;;5091976;28;20413;-90
2022/08/05 03:24:59;;;;;;;2.70;2.40;;;22.60;96.00;;;;;;5092707;28;20433;-90
2022/08/05 03:27:25;;;;;;;11.87;2.47;;;22.60;96.20;;;;;;5091803;28;20177;-90
2022/08/05 03:29:50;;;;;;;6.47;2.97;;;22.60;96.30;;;;;;5093576;28;20443;-90
2022/08/05 03:32:20;;;;;;;2.50;2.30;;;22.50;96.50;;;;;;5080916;28;20763;-90
2022/08/05 03:34:51;;;;;;;2.57;2.43;;;22.50;96.40;;;;;;5087286;28;20663;-89
2022/08/05 03:37:20;;;;;;;4.27;2.30;;;22.40;96.70;;;;;;5090388;28;20455;-91
2022/08/05 03:39:58;;;;;;;4.03;2.30;;;22.40;96.80;;;;;;5091707;28;20504;-92
2022/08/05 03:42:26;;;;;;;3.33;2.37;;;22.40;97.00;;;;;;5091518;28;20416;-90
2022/08/05 03:44:51;;;;;;;3.67;2.80;;;22.30;97.30;;;;;;5090749;28;20802;-90
2022/08/05 03:47:17;;;;;;;1.77;1.70;;;22.30;97.30;;;;;;5091625;28;20401;-90
2022/08/05 03:49:50;;;;;;;7.10;3.23;;;22.30;97.30;;;;;;5092153;28;20206;-90
2022/08/05 03:52:29;;;;;;;3.50;3.30;;;22.30;97.30;;;;;;5079411;28;20274;-90
2022/08/05 03:55:01;;;;;;;7.77;3.33;;;22.30;97.30;;;;;;5092155;28;20412;-90
2022/08/05 03:57:32;;;;;;;6.33;3.20;;;22.30;97.30;;;;;;5091730;28;20911;-90
2022/08/05 04:00:30;;;;;;;3.83;2.70;;;22.30;97.30;;;;;;5092175;28;20435;-90
2022/08/05 04:03:04;;;;;;;3.20;2.70;;;22.30;97.30;;;;;;5079558;28;20413;-90
2022/08/05 04:05:41;;;;;;;5.20;2.93;;;22.20;97.30;;;;;;5091800;28;20514;-90
2022/08/05 04:08:10;;;;;;;2.57;2.07;;;22.20;97.30;;;;;;5092429;28;20419;-90
2022/08/05 04:10:57;;;;;;;2.63;2.43;;;22.20;97.30;;;;;;5080608;28;20414;-90
2022/08/05 04:13:31;;;;;;;2.43;1.90;;;22.20;97.30;;;;;;5080252;28;20412;-90
2022/08/05 04:16:10;;;;;;;3.20;2.73;;;22.20;97.30;;;;;;5092058;28;20543;-90
2022/08/05 04:18:41;;;;;;;3.37;2.50;;;22.20;97.30;;;;;;5092356;28;20460;-90
2022/08/05 04:21:20;;;;;;;3.87;2.23;;;22.20;97.30;;;;;;5073862;28;20471;-89
2022/08/05 04:24:09;;;;;;;3.23;2.30;;;22.20;97.30;;;;;;5072851;28;20422;-89
2022/08/05 04:26:49;;;;;;;2.90;2.73;;;22.10;97.30;;;;;;5083587;28;20421;-90
2022/08/05 04:29:21;;;;;;;2.83;1.83;;;22.10;97.30;;;;;;5095159;28;20451;-90
2022/08/05 04:31:51;;;;;;;3.57;2.73;;;22.10;97.30;;;;;;5096266;28;20425;-90
2022/08/05 04:34:20;;;;;;;2.43;2.20;;;22.10;97.30;;;;;;5075861;28;20424;-90
2022/08/05 04:36:51;;;;;;;6.13;2.30;;;22.10;97.30;;;;;;5093922;28;20479;-90
2022/08/05 04:39:20;;;;;;;3.30;2.20;;;22.10;97.30;;;;;;5103481;28;20837;-88
2022/08/05 04:41:48;;;;;;;2.23;2.07;;;22.10;97.30;;;;;;5104475;28;20485;-89
2022/08/05 04:44:17;;;;;;;4.37;2.40;;;22.10;97.30;;;;;;5118789;28;20421;-89
2022/08/05 04:46:46;;;;;;;2.07;1.83;;;22.10;97.30;;;;;;5089861;28;20421;-90
2022/08/05 04:49:11;;;;;;;2.40;2.20;;;22.10;97.30;;;;;;5085158;28;20448;-89
2022/08/05 04:51:39;;;;;;;2.10;1.80;;;22.20;97.30;;;;;;5092224;28;20402;-89
2022/08/05 04:54:05;;;;;;;2.40;2.17;;;22.20;97.30;;;;;;5100280;28;20175;-89
2022/08/05 04:56:30;;;;;;;2.90;2.43;;;22.20;97.30;;;;;;5094046;28;20472;-90
2022/08/05 04:58:56;;;;;;;4.73;2.43;;;22.20;97.30;;;;;;5084630;28;20191;-91
2022/08/05 05:01:21;;;;;;;4.27;2.47;;;22.20;97.30;;;;;;5105829;28;20261;-89
2022/08/05 05:03:47;;;;;;;4.93;3.30;;;22.10;97.30;;;;;;5085398;28;20262;-90
2022/08/05 05:06:12;;;;;;;2.70;1.97;;;22.10;97.30;;;;;;5091255;28;20615;-90
2022/08/05 05:08:39;;;;;;;2.57;2.00;;;22.00;97.30;;;;;;5090771;28;20203;-88
2022/08/05 05:11:04;;;;;;;15.10;2.10;;;22.00;97.30;;;;;;5104343;28;20232;-89
2022/08/05 05:13:30;;;;;;;2.27;2.10;;;22.00;97.30;;;;;;5082539;28;20414;-90
2022/08/05 05:15:56;;;;;;;3.20;2.10;;;22.00;97.30;;;;;;5077936;28;20238;-89
2022/08/05 05:18:22;;;;;;;4.97;2.13;;;22.00;97.30;;;;;;5085938;28;20198;-89
2022/08/05 05:20:47;;;;;;;2.17;1.90;;;22.00;97.30;;;;;;5097058;28;20836;-89
2022/08/05 05:23:13;;;;;;;1.70;1.60;;;22.00;97.30;;;;;;5094476;28;20181;-89
2022/08/05 05:25:40;;;;;;;2.40;1.87;;;22.00;97.30;;;;;;5097858;28;20205;-90
2022/08/05 05:28:06;;;;;;;3.60;2.33;;;22.00;97.30;;;;;;5111719;28;20398;-88
2022/08/05 05:30:31;;;;;;;2.90;2.43;;;22.00;97.30;;;;;;5115533;28;20468;-90
2022/08/05 05:32:58;;;;;;;3.27;2.67;;;22.00;97.30;;;;;;5116889;28;20221;-89
2022/08/05 05:35:24;;;;;;;3.13;1.80;;;22.00;97.30;;;;;;5112045;28;20300;-89
2022/08/05 05:37:52;;;;;;;2.80;2.17;;;22.10;97.30;;;;;;5099746;28;20471;-88
2022/08/05 05:40:19;;;;;;;5.17;2.43;;;22.10;97.30;;;;;;5097043;28;20209;-90
2022/08/05 05:42:46;;;;;;;7.63;2.97;;;22.10;97.30;;;;;;5096592;28;20414;-89
2022/08/05 05:45:12;;;;;;;4.40;2.80;;;22.10;97.30;;;;;;5079834;28;20446;-89
2022/08/05 05:47:40;;;;;;;2.43;2.30;;;22.10;97.30;;;;;;5096095;28;20416;-89
2022/08/05 05:50:11;;;;;;;11.20;2.67;;;22.20;97.30;;;;;;5062273;23;20494;-78
2022/08/05 05:52:37;;;;;;;2.07;1.93;;;22.20;97.30;;;;;;5032536;28;20423;-78
2022/08/05 05:55:05;;;;;;;4.23;2.70;;;22.20;97.30;;;;;;5049293;28;20545;-79
2022/08/05 05:57:31;;;;;;;2.90;2.13;;;22.30;97.30;;;;;;5052038;28;20881;-79
2022/08/05 05:59:57;;;;;;;4.83;2.47;;;22.30;97.30;;;;;;5051197;28;20465;-78
2022/08/05 06:02:22;;;;;;;1.97;1.87;;;22.30;97.30;;;;;;5051938;28;20226;-79
2022/08/05 06:04:48;;;;;;;2.93;2.47;;;22.40;97.30;;;;;;5033319;28;20192;-78
2022/08/05 06:07:15;;;;;;;1.60;1.60;;;22.50;97.30;;;;;;5028444;28;20699;-79
2022/08/05 06:09:40;;;;;;;2.97;1.80;;;22.50;97.30;;;;;;5028911;28;20279;-78
2022/08/05 06:12:06;;;;;;;22.73;3.47;;;22.60;97.30;;;;;;5023407;28;20495;-79
2022/08/05 06:14:32;;;;;;;4.57;2.93;;;22.70;97.30;;;;;;5031837;28;20267;-80
2022/08/05 06:16:58;;;;;;;2.77;2.57;;;22.80;97.30;;;;;;5044385;28;21011;-79
2022/08/05 06:19:27;;;;;;;2.20;1.67;;;22.90;97.30;;;;;;5032513;28;20680;-79
2022/08/05 06:21:53;;;;;;;3.90;1.97;;;23.10;97.30;;;;;;5044035;28;20786;-79
2022/08/05 06:24:19;;;;;;;4.27;3.07;;;23.20;97.30;;;;;;5019509;28;20426;-78
2022/08/05 06:26:45;;;;;;;9.00;3.97;;;23.30;97.30;;;;;;5041541;28;20186;-78
2022/08/05 06:29:10;;;;;;;6.13;3.00;;;23.40;97.30;;;;;;5020046;28;20483;-79
2022/08/05 06:31:37;;;;;;;2.37;2.23;;;23.40;97.30;;;;;;5022723;28;20419;-79
2022/08/05 06:34:03;;;;;;;2.63;1.90;;;23.40;97.30;;;;;;5048074;28;20210;-79
2022/08/05 06:36:28;;;;;;;11.33;2.73;;;23.30;97.30;;;;;;5040848;28;20451;-79
2022/08/05 06:38:54;;;;;;;8.00;2.40;;;23.30;97.30;;;;;;5018160;28;20462;-79
2022/08/05 06:41:20;;;;;;;2.00;1.50;;;23.30;97.30;;;;;;5032322;28;20180;-79
2022/08/05 06:43:46;;;;;;;3.77;1.93;;;23.30;97.30;;;;;;5019022;28;20168;-79
2022/08/05 06:46:12;;;;;;;2.30;2.03;;;23.20;97.30;;;;;;5040657;28;20458;-79
2022/08/05 06:48:38;;;;;;;11.67;2.97;;;23.20;97.30;;;;;;5043865;28;20486;-79
2022/08/05 06:51:04;;;;;;;2.10;1.90;;;23.20;97.30;;;;;;5042530;28;20187;-79
2022/08/05 06:53:30;;;;;;;2.47;2.20;;;23.20;97.30;;;;;;5034292;28;20688;-80
2022/08/05 06:55:59;;;;;;;8.70;2.00;;;23.20;97.30;;;;;;5041053;28;20223;-79
2022/08/05 06:58:28;;;;;;;1.73;1.63;;;23.20;97.30;;;;;;5047221;28;20431;-79
2022/08/05 07:00:56;;;;;;;2.73;2.40;;;23.20;97.30;;;;;;5043356;28;20418;-80
2022/08/05 07:03:22;;;;;;;4.10;2.40;;;23.20;97.30;;;;;;5032618;28;20498;-79
2022/08/05 07:05:47;;;;;;;1.43;1.43;;;23.20;97.30;;;;;;5030677;28;20501;-79
2022/08/05 07:08:13;;;;;;;2.20;1.90;;;23.30;97.30;;;;;;5029977;28;20200;-79
2022/08/05 07:10:39;;;;;;;1.77;1.60;;;23.30;97.30;;;;;;5019777;28;20185;-79
2022/08/05 07:18:33;;;;;;;5.40;2.40;;;23.30;97.30;;;;;;5041503;28;20446;-79
2022/08/05 07:20:58;;;;;;;5.10;2.10;;;23.40;97.30;;;;;;5042642;28;20419;-79
2022/08/05 07:23:24;;;;;;;4.43;2.87;;;23.40;97.30;;;;;;5014405;28;20634;-79
2022/08/05 07:25:49;;;;;;;3.70;2.80;;;23.40;97.30;;;;;;5032184;28;20168;-79
2022/08/05 07:28:15;;;;;;;2.60;1.80;;;23.50;97.30;;;;;;5030157;28;20208;-79
2022/08/05 07:30:41;;;;;;;2.07;1.83;;;23.50;97.30;;;;;;5019829;28;20663;-79
2022/08/05 07:33:11;;;;;;;34.27;3.07;;;23.50;97.30;;;;;;5041219;28;20187;-79
2022/08/05 07:35:37;;;;;;;3.23;2.20;;;23.60;97.30;;;;;;5026365;28;20235;-79
2022/08/05 07:38:03;;;;;;;2.37;2.20;;;23.60;97.30;;;;;;5010288;28;20428;-79
2022/08/05 07:40:29;;;;;;;3.73;2.30;;;23.60;97.30;;;;;;5014673;28;20414;-79
2022/08/05 07:42:54;;;;;;;3.53;2.30;;;23.70;97.30;;;;;;5049845;28;20266;-79
2022/08/05 07:45:20;;;;;;;7.17;2.50;;;23.70;97.30;;;;;;5045894;28;20179;-79
2022/08/05 07:47:46;;;;;;;2.63;2.23;;;23.80;97.30;;;;;;5029164;28;20624;-79
2022/08/05 07:50:11;;;;;;;2.27;2.07;;;23.80;97.30;;;;;;5048726;28;20661;-79
2022/08/05 07:52:38;;;;;;;1.83;1.50;;;23.80;97.30;;;;;;5042668;28;20179;-79
2022/08/05 07:55:05;;;;;;;2.90;2.23;;;23.90;97.30;;;;;;5029622;28;20187;-79
2022/08/05 07:57:30;;;;;;;2.50;1.80;;;23.90;97.30;;;;;;5045466;28;20521;-79
2022/08/05 07:59:56;;;;;;;2.30;2.10;;;24.00;97.30;;;;;;5065527;28;20516;-79
2022/08/05 08:02:26;;;;;;;2.73;2.17;;;24.00;97.30;;;;;;5073202;28;20254;-79
2022/08/05 08:04:53;;;;;;;1.53;1.40;;;24.00;97.30;;;;;;5056501;28;20286;-79
2022/08/05 08:07:19;;;;;;;2.30;1.97;;;24.00;97.30;;;;;;5059231;28;20417;-79
2022/08/05 08:09:45;;;;;;;2.50;2.13;;;24.00;97.30;;;;;;5049483;28;20430;-79
2022/08/05 08:12:14;;;;;;;3.63;2.70;;;24.10;97.30;;;;;;5037065;28;20422;-79
2022/08/05 08:14:44;;;;;;;2.67;2.07;;;24.10;97.30;;;;;;5033580;28;20458;-80
2022/08/05 08:17:09;;;;;;;1.90;1.77;;;24.10;97.30;;;;;;5065447;28;20456;-79
2022/08/05 08:19:42;;;;;;;1.97;1.87;;;24.20;97.30;;;;;;5037335;28;20438;-79
2022/08/05 08:22:09;;;;;;;11.03;2.37;;;24.20;97.30;;;;;;5055258;28;20186;-79
2022/08/05 08:24:35;;;;;;;2.27;2.07;;;24.20;97.30;;;;;;5074730;28;20405;-79
2022/08/05 08:27:02;;;;;;;4.73;2.00;;;24.20;97.30;;;;;;5057172;28;20467;-79
2022/08/05 08:29:27;;;;;;;2.40;1.87;;;24.20;97.30;;;;;;5020537;28;20443;-79
2022/08/05 08:31:54;;;;;;;3.53;2.27;;;24.20;97.30;;;;;;5028024;28;20958;-79
2022/08/05 08:34:22;;;;;;;2.33;1.87;;;24.30;97.30;;;;;;5073525;28;20308;-79
2022/08/05 08:36:48;;;;;;;3.10;1.97;;;24.30;97.10;;;;;;5043597;28;20527;-79
2022/08/05 08:39:16;;;;;;;3.17;2.23;;;24.40;97.20;;;;;;5042665;28;20439;-79
2022/08/05 08:41:44;;;;;;;2.43;2.20;;;24.40;96.70;;;;;;5017990;28;20416;-79
2022/08/05 08:44:12;;;;;;;2.40;1.70;;;24.40;96.50;;;;;;5045595;28;20427;-79
2022/08/05 08:46:38;;;;;;;2.70;2.10;;;24.50;96.60;;;;;;5046127;28;20441;-79
2022/08/05 08:49:05;;;;;;;2.00;1.87;;;24.60;96.30;;;;;;5073269;28;20469;-80
2022/08/05 08:51:32;;;;;;;5.13;1.83;;;24.70;95.60;;;;;;5072138;28;20432;-79
2022/08/05 08:53:59;;;;;;;1.83;1.30;;;24.60;96.00;;;;;;5055692;28;20428;-79
2022/08/05 08:56:25;;;;;;;2.90;1.60;;;24.70;96.30;;;;;;5033739;28;20815;-79
2022/08/05 08:58:51;;;;;;;2.20;1.97;;;24.70;95.90;;;;;;5062336;28;20512;-79
2022/08/05 09:01:18;;;;;;;1.53;1.53;;;24.60;96.00;;;;;;5055738;28;20822;-79
2022/08/05 09:03:49;;;;;;;2.93;1.47;;;24.70;96.00;;;;;;5047686;28;20183;-79
2022/08/05 09:06:15;;;;;;;6.60;2.63;;;24.70;95.80;;;;;;5052713;28;20430;-79
2022/08/05 09:08:40;;;;;;;1.40;1.17;;;24.60;95.60;;;;;;5035475;28;20438;-79
2022/08/05 09:11:07;;;;;;;1.40;1.30;;;24.60;95.70;;;;;;5069958;28;20190;-79
2022/08/05 09:13:34;;;;;;;2.27;1.80;;;24.60;96.20;;;;;;5055447;28;20183;-79
2022/08/05 09:16:01;;;;;;;1.77;1.57;;;24.70;96.10;;;;;;5068316;28;20457;-79
2022/08/05 09:18:27;;;;;;;1.20;1.20;;;24.80;96.20;;;;;;5045635;28;20444;-79
2022/08/05 09:20:53;;;;;;;3.10;2.43;;;24.90;95.60;;;;;;5098506;23;20487;-83
2022/08/05 09:23:19;;;;;;;7.80;1.83;;;25.00;95.20;;;;;;5095297;28;20412;-83
2022/08/05 09:25:50;;;;;;;3.60;3.23;;;25.00;95.00;;;;;;5095408;28;20215;-82
2022/08/05 09:28:26;;;;;;;2.00;1.53;;;25.10;95.50;;;;;;5113933;28;20422;-82
2022/08/05 09:30:54;;;;;;;2.23;2.13;;;25.20;95.00;;;;;;5095377;28;20407;-82
2022/08/05 09:33:20;;;;;;;2.40;2.00;;;25.40;94.10;;;;;;5095536;28;20772;-83
2022/08/05 09:35:55;;;;;;;3.07;1.90;;;25.50;94.50;;;;;;5113475;28;20791;-82
2022/08/05 09:38:21;;;;;;;1.87;1.77;;;25.70;94.10;;;;;;5095322;28;20443;-82
2022/08/05 09:40:46;;;;;;;1.80;1.70;;;25.80;92.80;;;;;;5095614;28;20507;-83
2022/08/05 09:43:32;;;;;;;4.60;1.80;;;25.80;92.20;;;;;;5095347;28;20684;-82
2022/08/05 09:45:58;;;;;;;2.07;1.57;;;25.80;92.40;;;;;;5095441;28;20185;-82
2022/08/05 09:48:29;;;;;;;1.60;1.50;;;25.80;92.50;;;;;;5095018;28;20804;-83
2022/08/05 09:51:03;;;;;;;1.80;1.70;;;25.80;92.50;;;;;;5094804;28;20403;-83
2022/08/05 09:53:44;;;;;;;4.53;2.63;;;25.80;92.70;;;;;;5095222;28;20411;-83
2022/08/05 09:56:10;;;;;;;2.33;2.13;;;25.90;92.70;;;;;;5094522;28;20489;-82
2022/08/05 09:58:36;;;;;;;2.80;1.90;;;25.90;92.60;;;;;;5094980;28;20447;-82
2022/08/05 10:01:04;;;;;;;2.30;1.67;;;25.90;92.80;;;;;;5094657;28;20210;-83
2022/08/05 10:03:30;;;;;;;6.03;1.93;;;26.00;92.20;;;;;;5095133;28;20200;-83
2022/08/05 10:06:00;;;;;;;4.63;1.77;;;26.00;92.50;;;;;;5094285;28;20462;-83
2022/08/05 10:08:26;;;;;;;13.23;1.90;;;26.10;93.10;;;;;;5094550;28;20204;-82
2022/08/05 10:10:51;;;;;;;1.90;1.30;;;26.30;93.80;;;;;;5094520;28;20702;-82
2022/08/05 10:13:37;;;;;;;1.77;1.40;;;26.50;93.50;;;;;;5094264;28;20205;-83
2022/08/05 10:16:25;;;;;;;2.23;2.03;;;26.80;91.80;;;;;;5094368;28;20250;-82
2022/08/05 10:18:52;;;;;;;2.50;1.60;;;27.00;90.30;;;;;;5111879;28;20427;-82
2022/08/05 10:21:18;;;;;;;1.67;1.57;;;27.20;91.10;;;;;;5094117;28;20852;-82
2022/08/05 10:23:44;;;;;;;3.50;2.87;;;27.30;89.90;;;;;;5112704;28;20422;-82
2022/08/05 10:26:13;;;;;;;3.03;2.13;;;27.40;89.00;;;;;;5112892;28;20174;-82
2022/08/05 10:28:40;;;;;;;2.43;1.80;;;27.40;88.60;;;;;;5094313;28;20827;-83
2022/08/05 10:31:05;;;;;;;2.90;2.00;;;27.30;88.40;;;;;;5094155;28;20443;-82
2022/08/05 10:33:32;;;;;;;1.53;1.50;;;27.30;89.00;;;;;;5094428;28;20450;-82
2022/08/05 10:36:02;;;;;;;5.47;1.87;;;27.20;89.20;;;;;;5094325;28;20343;-82
2022/08/05 10:38:29;;;;;;;3.37;1.70;;;27.10;88.70;;;;;;5094110;28;20581;-83
2022/08/05 10:41:22;;;;;;;1.57;1.50;;;27.10;88.80;;;;;;5094128;28;20549;-82
2022/08/05 10:43:56;;;;;;;1.70;1.47;;;27.00;88.60;;;;;;5085927;28;20501;-82
2022/08/05 10:46:22;;;;;;;21.10;2.03;;;26.90;88.70;;;;;;5112022;28;20454;-82
2022/08/05 10:48:55;;;;;;;1.43;1.33;;;27.00;88.80;;;;;;5094021;28;20876;-83
2022/08/05 10:51:21;;;;;;;4.10;2.10;;;27.00;88.30;;;;;;5093985;28;20178;-82
2022/08/05 10:53:50;;;;;;;3.60;2.50;;;27.10;88.00;;;;;;5093815;28;20561;-82
2022/08/05 10:56:21;;;;;;;2.80;2.07;;;27.10;88.10;;;;;;5093374;28;20466;-82
2022/08/05 10:58:53;;;;;;;1.53;1.47;;;27.20;88.20;;;;;;5093812;28;20632;-82
2022/08/05 11:01:43;;;;;;;3.03;2.40;;;27.20;88.10;;;;;;5111920;28;20411;-83
2022/08/05 11:04:10;;;;;;;3.10;1.80;;;27.20;87.60;;;;;;5093464;28;20412;-82
2022/08/05 11:06:59;;;;;;;2.43;1.63;;;27.20;87.70;;;;;;5093412;28;20422;-82
2022/08/05 11:09:46;;;;;;;2.77;2.13;;;27.20;87.50;;;;;;5110376;28;20435;-82
2022/08/05 11:12:35;;;;;;;3.20;2.10;;;27.20;88.20;;;;;;5093518;28;20496;-82
2022/08/05 11:15:20;;;;;;;1.77;1.70;;;27.20;88.60;;;;;;5093620;28;20481;-82
2022/08/05 11:17:50;;;;;;;4.67;2.47;;;27.40;88.50;;;;;;5093479;28;20493;-82
2022/08/05 11:20:38;;;;;;;1.47;1.37;;;27.50;89.10;;;;;;5093590;28;20455;-82
2022/08/05 11:23:30;;;;;;;2.97;1.73;;;27.70;88.90;;;;;;5093616;28;20415;-82
2022/08/05 11:26:03;;;;;;;1.47;1.37;;;27.90;89.90;;;;;;5093472;28;20412;-82
2022/08/05 11:28:32;;;;;;;2.20;1.43;;;28.20;89.60;;;;;;5093142;28;20427;-82
2022/08/05 11:31:00;;;;;;;2.30;1.93;;;28.40;88.80;;;;;;5096126;28;21061;-82
2022/08/05 11:33:35;;;;;;;1.50;1.40;;;28.50;88.90;;;;;;5097314;28;20419;-83
2022/08/05 11:36:04;;;;;;;2.93;2.43;;;28.60;86.90;;;;;;5097415;28;20586;-82
2022/08/05 11:38:42;;;;;;;3.17;1.90;;;28.60;86.70;;;;;;5097127;28;20473;-82
2022/08/05 11:41:24;;;;;;;4.30;3.23;;;28.70;86.30;;;;;;5097445;28;20407;-83
2022/08/05 11:44:01;;;;;;;2.17;2.00;;;28.90;86.60;;;;;;5097083;28;20407;-82
2022/08/05 11:46:28;;;;;;;1.77;1.47;;;29.00;86.20;;;;;;5097078;28;20788;-83
2022/08/05 11:48:55;;;;;;;1.63;1.60;;;29.10;85.30;;;;;;5096889;28;20442;-82
2022/08/05 11:51:21;;;;;;;2.53;2.27;;;29.20;85.70;;;;;;5097009;28;20445;-82
2022/08/05 11:53:47;;;;;;;2.83;2.50;;;29.30;85.30;;;;;;5115559;28;20414;-83
2022/08/05 11:56:14;;;;;;;1.73;1.63;;;29.40;85.20;;;;;;5097136;28;20450;-83
2022/08/05 11:58:44;;;;;;;1.73;1.37;;;29.50;85.10;;;;;;5115400;28;20990;-82
2022/08/05 12:01:15;;;;;;;2.87;1.30;;;29.60;83.60;;;;;;5096848;28;20408;-82
2022/08/05 12:03:44;;;;;;;2.33;1.83;;;29.70;84.40;;;;;;5096980;28;20794;-83
2022/08/05 12:06:11;;;;;;;1.47;1.37;;;29.90;83.50;;;;;;5096769;28;20426;-83
2022/08/05 12:08:40;;;;;;;2.70;1.37;;;30.10;81.80;;;;;;5096718;28;20439;-83
2022/08/05 12:11:08;;;;;;;2.00;1.90;;;30.10;81.80;;;;;;5096920;28;20411;-83
2022/08/05 12:13:34;;;;;;;1.87;1.83;;;30.20;81.60;;;;;;5096747;28;20934;-83
2022/08/05 12:16:00;;;;;;;1.60;1.50;;;30.20;81.10;;;;;;5097006;28;21036;-83
2022/08/05 12:18:33;;;;;;;2.83;2.27;;;30.30;80.80;;;;;;5096640;28;20514;-83
2022/08/05 12:21:12;;;;;;;1.87;1.73;;;30.30;81.80;;;;;;5096526;28;20270;-82
2022/08/05 12:23:38;;;;;;;2.07;1.93;;;30.40;81.60;;;;;;5096896;28;20419;-82
2022/08/05 12:26:04;;;;;;;4.20;1.53;;;30.60;81.60;;;;;;5096323;28;20500;-82
2022/08/05 12:28:35;;;;;;;1.87;1.80;;;30.70;82.10;;;;;;5096104;28;20436;-84
2022/08/05 12:31:01;;;;;;;4.60;2.40;;;30.90;81.90;;;;;;5096352;28;20514;-83
2022/08/05 12:33:27;;;;;;;1.40;1.40;;;31.00;80.50;;;;;;5096135;28;20550;-82
2022/08/05 12:35:54;;;;;;;3.40;2.63;;;31.20;79.50;;;;;;5096134;28;20455;-80
2022/08/05 12:38:21;;;;;;;7.60;1.97;;;31.20;80.00;;;;;;5095905;28;20196;-80
2022/08/05 12:40:48;;;;;;;2.07;1.93;;;31.30;80.30;;;;;;5114115;28;20430;-82
2022/08/05 12:43:13;;;;;;;15.90;2.63;;;31.20;80.10;;;;;;5094892;28;20776;-83
2022/08/05 12:45:53;;;;;;;2.63;2.23;;;31.20;80.80;;;;;;5096118;28;20412;-82
2022/08/05 12:48:20;;;;;;;2.07;1.93;;;31.20;79.60;;;;;;5095748;28;20259;-81
2022/08/05 12:51:08;;;;;;;2.40;1.77;;;31.10;79.50;;;;;;5095913;28;20556;-80
2022/08/05 12:53:40;;;;;;;2.70;1.53;;;30.90;79.20;;;;;;5095749;28;20404;-84
2022/08/05 12:56:24;;;;;;;1.80;1.70;;;30.70;79.80;;;;;;5113953;28;20546;-80
2022/08/05 12:59:13;;;;;;;1.50;1.43;;;30.60;80.90;;;;;;5095790;28;20794;-82
2022/08/05 13:01:41;;;;;;;2.97;1.43;;;30.50;80.40;;;;;;5095952;28;20456;-83
2022/08/05 13:04:07;;;;;;;1.90;1.80;;;30.30;80.40;;;;;;5095702;28;20414;-81
2022/08/05 13:06:45;;;;;;;7.10;1.67;;;30.20;81.10;;;;;;5096176;28;20415;-81